Time,TemperatureF,DewpointF,PressureIn,WindDirection,WindDirectionDegrees,WindSpeedMPH,WindSpeedGustMPH,Humidity,HourlyPrecipIn,Conditions,Clouds,dailyrainin,SoftwareType,DateUTC
2013-01-05 00:00:00,28.3,21.1,29.83,SW,229,0.0,0.0,74,0.00,,,0.00,Wunderground v.1.15,2013-01-05 05:00:00,
2013-01-05 00:10:00,28.4,21.2,29.84,SSE,167,0.0,2.0,74,0.00,,,0.00,Wunderground v.1.15,2013-01-05 05:10:00,
2013-01-05 00:20:00,28.5,21.3,29.84,SSE,167,0.0,0.0,74,0.00,,,0.00,Wunderground v.1.15,2013-01-05 05:20:00,
2013-01-05 00:30:00,28.4,20.8,29.84,SSE,167,0.0,1.0,73,0.00,,,0.00,Wunderground v.1.15,2013-01-05 05:30:00,
2013-01-05 00:40:00,28.5,20.9,29.84,SSE,167,0.0,0.0,73,0.00,,,0.00,Wunderground v.1.15,2013-01-05 05:40:00,
2013-01-05 00:50:00,28.2,21.0,29.84,SW,225,0.0,0.0,74,0.00,,,0.00,Wunderground v.1.15,2013-01-05 05:50:00,
2013-01-05 01:00:00,28.0,21.1,29.84,SW,225,0.0,0.0,75,0.00,,,0.00,Wunderground v.1.15,2013-01-05 06:00:00,
2013-01-05 01:10:00,28.5,21.6,29.85,NNE,19,1.0,1.0,75,0.00,,,0.00,Wunderground v.1.15,2013-01-05 06:10:00,
2013-01-05 01:20:00,29.3,21.7,29.84,SW,231,1.0,1.0,73,0.00,,,0.00,Wunderground v.1.15,2013-01-05 06:20:00,
2013-01-05 01:30:00,30.1,22.2,29.85,WNW,283,2.0,9.0,72,0.00,,,0.00,Wunderground v.1.15,2013-01-05 06:30:00,
2013-01-05 01:40:00,32.7,22.9,29.85,NNW,331,3.0,3.0,67,0.00,,,0.00,Wunderground v.1.15,2013-01-05 06:40:00,
2013-01-05 01:50:00,33.5,23.4,29.86,WNW,300,4.0,4.0,66,0.00,,,0.00,Wunderground v.1.15,2013-01-05 06:50:00,
2013-01-05 02:00:00,33.8,23.6,29.86,WSW,258,3.0,8.0,66,0.00,,,0.00,Wunderground v.1.15,2013-01-05 07:00:00,
2013-01-05 02:10:00,34.3,23.4,29.86,WSW,250,5.0,5.0,64,0.00,,,0.00,Wunderground v.1.15,2013-01-05 07:10:00,
2013-01-05 02:20:00,34.1,23.2,29.87,West,271,3.0,4.0,64,0.00,,,0.00,Wunderground v.1.15,2013-01-05 07:20:00,
2013-01-05 02:30:00,34.5,23.2,29.87,NW,312,5.0,5.0,63,0.00,,,0.00,Wunderground v.1.15,2013-01-05 07:30:00,
2013-01-05 02:40:00,34.6,23.7,29.88,West,260,3.0,4.0,64,0.00,,,0.00,Wunderground v.1.15,2013-01-05 07:40:00,
2013-01-05 02:50:00,34.8,23.5,29.87,West,278,5.0,6.0,63,0.00,,,0.00,Wunderground v.1.15,2013-01-05 07:50:00,
2013-01-05 03:00:00,34.6,23.7,29.87,WNW,302,4.0,4.0,64,0.00,,,0.00,Wunderground v.1.15,2013-01-05 08:00:00,
2013-01-05 03:10:00,34.3,23.4,29.87,WNW,294,3.0,5.0,64,0.00,,,0.00,Wunderground v.1.15,2013-01-05 08:10:00,
2013-01-05 03:20:00,33.9,23.4,29.88,West,272,3.0,3.0,65,0.00,,,0.00,Wunderground v.1.15,2013-01-05 08:20:00,
2013-01-05 03:30:00,33.8,23.3,29.88,WSW,247,4.0,4.0,65,0.00,,,0.00,Wunderground v.1.15,2013-01-05 08:30:00,
2013-01-05 03:40:00,33.4,23.6,29.89,WNW,294,3.0,3.0,67,0.00,,,0.00,Wunderground v.1.15,2013-01-05 08:40:00,
2013-01-05 03:50:00,33.4,23.6,29.89,West,259,3.0,6.0,67,0.00,,,0.00,Wunderground v.1.15,2013-01-05 08:50:00,
2013-01-05 04:00:00,33.3,23.9,29.89,SW,234,2.0,7.0,68,0.00,,,0.00,Wunderground v.1.15,2013-01-05 09:00:00,
2013-01-05 04:10:00,33.2,23.8,29.90,West,261,2.0,3.0,68,0.00,,,0.00,Wunderground v.1.15,2013-01-05 09:10:00,
2013-01-05 04:20:00,33.4,24.3,29.90,West,275,3.0,3.0,69,0.00,,,0.00,Wunderground v.1.15,2013-01-05 09:20:00,
2013-01-05 04:30:00,33.2,23.8,29.90,SSE,150,2.0,2.0,68,0.00,,,0.00,Wunderground v.1.15,2013-01-05 09:30:00,
2013-01-05 04:40:00,33.0,23.9,29.91,WSW,257,2.0,2.0,69,0.00,,,0.00,Wunderground v.1.15,2013-01-05 09:40:00,
2013-01-05 04:50:00,32.5,24.1,29.91,SW,231,1.0,2.0,71,0.00,,,0.00,Wunderground v.1.15,2013-01-05 09:50:00,
2013-01-05 05:00:00,32.7,24.0,29.92,West,267,2.0,2.0,70,0.00,,,0.00,Wunderground v.1.15,2013-01-05 10:00:00,
2013-01-05 05:10:00,32.8,24.1,29.92,WNW,290,2.0,5.0,70,0.00,,,0.00,Wunderground v.1.15,2013-01-05 10:10:00,
2013-01-05 05:20:00,32.4,23.7,29.93,West,259,1.0,2.0,70,0.00,,,0.00,Wunderground v.1.15,2013-01-05 10:20:00,
2013-01-05 05:30:00,32.2,23.8,29.93,SW,222,1.0,1.0,71,0.00,,,0.00,Wunderground v.1.15,2013-01-05 10:30:00,
2013-01-05 05:40:00,31.9,23.6,29.94,WSW,254,2.0,2.0,71,0.00,,,0.00,Wunderground v.1.15,2013-01-05 10:40:00,
2013-01-05 05:50:00,31.7,23.7,29.94,WNW,284,1.0,1.0,72,0.00,,,0.00,Wunderground v.1.15,2013-01-05 10:50:00,
2013-01-05 06:00:00,31.5,23.5,29.95,WSW,242,1.0,2.0,72,0.00,,,0.00,Wunderground v.1.15,2013-01-05 11:00:00,
2013-01-05 06:10:00,31.6,23.6,29.95,WSW,244,0.0,0.0,72,0.00,,,0.00,Wunderground v.1.15,2013-01-05 11:10:00,
2013-01-05 06:20:00,31.5,23.5,29.96,WSW,243,0.0,1.0,72,0.00,,,0.00,Wunderground v.1.15,2013-01-05 11:20:00,
2013-01-05 06:30:00,31.1,23.1,29.97,WSW,243,0.0,1.0,72,0.00,,,0.00,Wunderground v.1.15,2013-01-05 11:30:00,
2013-01-05 06:40:00,30.3,22.7,29.98,WSW,256,1.0,2.0,73,0.00,,,0.00,Wunderground v.1.15,2013-01-05 11:40:00,
2013-01-05 06:50:00,28.9,22.3,29.98,WSW,256,1.0,1.0,76,0.00,,,0.00,Wunderground v.1.15,2013-01-05 11:50:00,
2013-01-05 07:00:00,28.7,22.4,29.99,West,259,1.0,1.0,77,0.00,,,0.00,Wunderground v.1.15,2013-01-05 12:00:00,
2013-01-05 07:10:00,28.8,22.5,30.00,West,259,0.0,1.0,77,0.00,,,0.00,Wunderground v.1.15,2013-01-05 12:10:00,
2013-01-05 07:20:00,28.8,22.5,30.00,West,259,1.0,1.0,77,0.00,,,0.00,Wunderground v.1.15,2013-01-05 12:20:00,
2013-01-05 07:30:00,28.1,22.1,30.00,WSW,238,1.0,2.0,78,0.00,,,0.00,Wunderground v.1.15,2013-01-05 12:30:00,
2013-01-05 07:40:00,28.4,22.4,30.01,WSW,257,0.0,0.0,78,0.00,,,0.00,Wunderground v.1.15,2013-01-05 12:40:00,
2013-01-05 07:50:00,28.7,22.4,30.02,West,269,1.0,1.0,77,0.00,,,0.00,Wunderground v.1.15,2013-01-05 12:50:00,
2013-01-05 08:00:00,29.4,22.8,30.02,WNW,286,2.0,3.0,76,0.00,,,0.00,Wunderground v.1.15,2013-01-05 13:00:00,
2013-01-05 08:10:00,30.3,23.3,30.03,West,267,1.0,2.0,75,0.00,,,0.00,Wunderground v.1.15,2013-01-05 13:10:00,
2013-01-05 08:20:00,31.3,23.6,30.03,West,273,1.0,1.0,73,0.00,,,0.00,Wunderground v.1.15,2013-01-05 13:20:00,
2013-01-05 08:30:00,32.0,23.7,30.04,West,266,1.0,2.0,71,0.00,,,0.00,Wunderground v.1.15,2013-01-05 13:30:00,
2013-01-05 08:40:00,32.8,24.1,30.05,WNW,292,2.0,2.0,70,0.00,,,0.00,Wunderground v.1.15,2013-01-05 13:40:00,
2013-01-05 08:50:00,33.7,25.0,30.06,WSW,258,2.0,2.0,70,0.00,,,0.00,Wunderground v.1.15,2013-01-05 13:50:00,
2013-01-05 09:00:00,35.2,25.0,30.06,WNW,294,4.0,4.0,66,0.00,,,0.00,Wunderground v.1.15,2013-01-05 14:00:00,
2013-01-05 09:10:00,36.1,25.5,30.07,South,188,4.0,4.0,65,0.00,,,0.00,Wunderground v.1.15,2013-01-05 14:10:00,
2013-01-05 09:20:00,36.4,25.4,30.08,West,268,2.0,2.0,64,0.00,,,0.00,Wunderground v.1.15,2013-01-05 14:20:00,
2013-01-05 09:30:00,36.6,25.2,30.09,WSW,253,4.0,9.0,63,0.00,,,0.00,Wunderground v.1.15,2013-01-05 14:30:00,
2013-01-05 09:40:00,36.9,25.1,30.10,WNW,282,4.0,4.0,62,0.00,,,0.00,Wunderground v.1.15,2013-01-05 14:40:00,
2013-01-05 09:50:00,37.3,25.1,30.10,West,266,4.0,4.0,61,0.00,,,0.00,Wunderground v.1.15,2013-01-05 14:50:00,
2013-01-05 10:00:00,38.0,24.9,30.11,WNW,292,6.0,9.0,59,0.00,,,0.00,Wunderground v.1.15,2013-01-05 15:00:00,
2013-01-05 10:10:00,38.4,24.9,30.11,WNW,287,4.0,4.0,58,0.00,,,0.00,Wunderground v.1.15,2013-01-05 15:10:00,
2013-01-05 10:20:00,39.1,25.6,30.11,West,280,3.0,5.0,58,0.00,,,0.00,Wunderground v.1.15,2013-01-05 15:20:00,
2013-01-05 10:30:00,39.1,24.7,30.12,West,267,5.0,6.0,56,0.00,,,0.00,Wunderground v.1.15,2013-01-05 15:30:00,
2013-01-05 10:40:00,39.0,24.2,30.12,WNW,294,5.0,5.0,55,0.00,,,0.00,Wunderground v.1.15,2013-01-05 15:40:00,
2013-01-05 10:50:00,38.4,24.1,30.12,West,280,4.0,4.0,56,0.00,,,0.00,Wunderground v.1.15,2013-01-05 15:50:00,
2013-01-05 11:00:00,38.2,23.4,30.12,SSW,194,3.0,3.0,55,0.00,,,0.00,Wunderground v.1.15,2013-01-05 16:00:00,
2013-01-05 11:10:00,38.9,22.8,30.12,SSE,149,3.0,3.0,52,0.00,,,0.00,Wunderground v.1.15,2013-01-05 16:10:00,
2013-01-05 11:20:00,39.6,22.5,30.12,WNW,289,3.0,4.0,50,0.00,,,0.00,Wunderground v.1.15,2013-01-05 16:20:00,
2013-01-05 11:30:00,40.0,22.8,30.12,WNW,298,4.0,4.0,50,0.00,,,0.00,Wunderground v.1.15,2013-01-05 16:30:00,
2013-01-05 11:40:00,40.5,22.3,30.12,WNW,294,4.0,10.0,48,0.00,,,0.00,Wunderground v.1.15,2013-01-05 16:40:00,
2013-01-05 11:50:00,40.9,22.2,30.12,NW,314,5.0,5.0,47,0.00,,,0.00,Wunderground v.1.15,2013-01-05 16:50:00,
2013-01-05 12:00:00,41.1,21.3,30.13,NNW,330,3.0,4.0,45,0.00,,,0.00,Wunderground v.1.15,2013-01-05 17:00:00,
2013-01-05 12:10:00,41.7,20.8,30.12,NNW,334,3.0,8.0,43,0.00,,,0.00,Wunderground v.1.15,2013-01-05 17:10:00,
2013-01-05 12:20:00,41.8,20.9,30.12,NW,304,4.0,4.0,43,0.00,,,0.00,Wunderground v.1.15,2013-01-05 17:20:00,
2013-01-05 12:30:00,41.5,20.6,30.13,North,11,6.0,6.0,43,0.00,,,0.00,Wunderground v.1.15,2013-01-05 17:30:00,
2013-01-05 12:40:00,41.3,21.0,30.13,NW,318,5.0,5.0,44,0.00,,,0.00,Wunderground v.1.15,2013-01-05 17:40:00,
2013-01-05 12:50:00,41.0,19.6,30.13,West,259,5.0,6.0,42,0.00,,,0.00,Wunderground v.1.15,2013-01-05 17:50:00,
2013-01-05 13:00:00,41.1,20.3,30.14,NW,310,6.0,6.0,43,0.00,,,0.00,Wunderground v.1.15,2013-01-05 18:00:00,
2013-01-05 13:10:00,41.3,19.3,30.14,NW,307,5.0,8.0,41,0.00,,,0.00,Wunderground v.1.15,2013-01-05 18:10:00,
2013-01-05 13:20:00,40.8,18.9,30.13,WNW,300,6.0,6.0,41,0.00,,,0.00,Wunderground v.1.15,2013-01-05 18:20:00,
2013-01-05 13:30:00,41.2,18.7,30.13,WNW,283,5.0,9.0,40,0.00,,,0.00,Wunderground v.1.15,2013-01-05 18:30:00,
2013-01-05 13:40:00,41.3,18.2,30.14,West,268,5.0,10.0,39,0.00,,,0.00,Wunderground v.1.15,2013-01-05 18:40:00,
2013-01-05 13:50:00,40.8,17.1,30.14,NW,307,5.0,5.0,38,0.00,,,0.00,Wunderground v.1.15,2013-01-05 18:50:00,
2013-01-05 14:00:00,40.7,18.2,30.14,NW,312,3.0,5.0,40,0.00,,,0.00,Wunderground v.1.15,2013-01-05 19:00:00,
2013-01-05 14:10:00,40.9,18.4,30.14,NNE,14,3.0,3.0,40,0.00,,,0.00,Wunderground v.1.15,2013-01-05 19:10:00,
2013-01-05 14:20:00,40.4,16.8,30.14,NNW,347,3.0,3.0,38,0.00,,,0.00,Wunderground v.1.15,2013-01-05 19:20:00,
2013-01-05 14:30:00,40.0,18.2,30.14,NNW,329,3.0,3.0,41,0.00,,,0.00,Wunderground v.1.15,2013-01-05 19:30:00,
2013-01-05 14:40:00,40.0,18.2,30.14,NW,315,3.0,3.0,41,0.00,,,0.00,Wunderground v.1.15,2013-01-05 19:40:00,
2013-01-05 14:50:00,40.1,18.3,30.15,West,269,2.0,2.0,41,0.00,,,0.00,Wunderground v.1.15,2013-01-05 19:50:00,
2013-01-05 15:00:00,39.8,16.2,30.14,North,351,3.0,3.0,38,0.00,,,0.00,Wunderground v.1.15,2013-01-05 20:00:00,
2013-01-05 15:10:00,39.7,16.7,30.15,NE,34,2.0,3.0,39,0.00,,,0.00,Wunderground v.1.15,2013-01-05 20:10:00,
2013-01-05 15:20:00,39.5,17.1,30.16,North,350,3.0,3.0,40,0.00,,,0.00,Wunderground v.1.15,2013-01-05 20:20:00,
2013-01-05 15:30:00,39.2,16.3,30.16,NW,323,3.0,3.0,39,0.00,,,0.00,Wunderground v.1.15,2013-01-05 20:30:00,
2013-01-05 15:40:00,38.8,16.5,30.17,WSW,250,2.0,2.0,40,0.00,,,0.00,Wunderground v.1.15,2013-01-05 20:40:00,
2013-01-05 15:50:00,38.7,18.1,30.17,West,269,1.0,3.0,43,0.00,,,0.00,Wunderground v.1.15,2013-01-05 20:50:00,
2013-01-05 16:00:00,38.3,16.6,30.16,North,11,2.0,2.0,41,0.00,,,0.00,Wunderground v.1.15,2013-01-05 21:00:00,
2013-01-05 16:10:00,38.1,16.4,30.18,West,278,1.0,1.0,41,0.00,,,0.00,Wunderground v.1.15,2013-01-05 21:10:00,
2013-01-05 16:20:00,37.5,16.5,30.18,North,355,0.0,0.0,42,0.00,,,0.00,Wunderground v.1.15,2013-01-05 21:20:00,
2013-01-05 16:30:00,36.6,17.2,30.19,West,281,1.0,1.0,45,0.00,,,0.00,Wunderground v.1.15,2013-01-05 21:30:00,
2013-01-05 16:40:00,35.9,17.1,30.20,West,281,0.0,0.0,46,0.00,,,0.00,Wunderground v.1.15,2013-01-05 21:40:00,
2013-01-05 16:50:00,35.1,17.4,30.20,West,281,0.0,0.0,48,0.00,,,0.00,Wunderground v.1.15,2013-01-05 21:50:00,
2013-01-05 17:00:00,34.1,17.4,30.21,West,281,0.0,0.0,50,0.00,,,0.00,Wunderground v.1.15,2013-01-05 22:00:00,
2013-01-05 17:10:00,32.6,16.9,30.21,West,281,0.0,0.0,52,0.00,,,0.00,Wunderground v.1.15,2013-01-05 22:10:00,
2013-01-05 17:20:00,31.8,19.1,30.21,WSW,251,0.0,0.0,59,0.00,,,0.00,Wunderground v.1.15,2013-01-05 22:20:00,
2013-01-05 17:30:00,30.8,18.1,30.21,WSW,251,0.0,0.0,59,0.00,,,0.00,Wunderground v.1.15,2013-01-05 22:30:00,
2013-01-05 17:40:00,29.9,18.5,30.22,WSW,251,0.0,0.0,62,0.00,,,0.00,Wunderground v.1.15,2013-01-05 22:40:00,
2013-01-05 17:50:00,29.1,19.2,30.22,WSW,251,0.0,0.0,66,0.00,,,0.00,Wunderground v.1.15,2013-01-05 22:50:00,
2013-01-05 18:00:00,28.5,18.2,30.23,WSW,251,0.0,0.0,65,0.00,,,0.00,Wunderground v.1.15,2013-01-05 23:00:00,
2013-01-05 18:10:00,28.0,18.5,30.23,WSW,251,0.0,0.0,67,0.00,,,0.00,Wunderground v.1.15,2013-01-05 23:10:00,
2013-01-05 18:20:00,27.6,18.1,30.23,WSW,251,0.0,0.0,67,0.00,,,0.00,Wunderground v.1.15,2013-01-05 23:20:00,
2013-01-05 18:30:00,27.3,19.1,30.24,WSW,251,0.0,0.0,71,0.00,,,0.00,Wunderground v.1.15,2013-01-05 23:30:00,
2013-01-05 18:40:00,26.7,17.9,30.24,WSW,251,0.0,0.0,69,0.00,,,0.00,Wunderground v.1.15,2013-01-05 23:40:00,
2013-01-05 18:50:00,26.3,17.8,30.25,WSW,251,0.0,1.0,70,0.00,,,0.00,Wunderground v.1.15,2013-01-05 23:50:00,
2013-01-05 19:00:00,26.1,18.3,30.26,WSW,242,0.0,1.0,72,0.00,,,0.00,Wunderground v.1.15,2013-01-06 00:00:00,
2013-01-05 19:10:00,26.0,18.2,30.25,WSW,242,1.0,1.0,72,0.00,,,0.00,Wunderground v.1.15,2013-01-06 00:10:00,
2013-01-05 19:20:00,25.8,18.0,30.26,SW,216,0.0,1.0,72,0.00,,,0.00,Wunderground v.1.15,2013-01-06 00:20:00,
2013-01-05 19:30:00,25.6,18.1,30.25,SW,216,0.0,0.0,73,0.00,,,0.00,Wunderground v.1.15,2013-01-06 00:30:00,
2013-01-05 19:40:00,25.3,17.5,30.25,SW,216,0.0,0.0,72,0.00,,,0.00,Wunderground v.1.15,2013-01-06 00:40:00,
2013-01-05 19:50:00,25.1,17.0,30.24,SW,216,0.0,0.0,71,0.00,,,0.00,Wunderground v.1.15,2013-01-06 00:50:00,
2013-01-05 20:00:00,24.8,17.1,30.24,SW,216,0.0,0.0,72,0.00,,,0.00,Wunderground v.1.15,2013-01-06 01:00:00,
2013-01-05 20:10:00,24.6,16.9,30.24,SW,216,0.0,0.0,72,0.00,,,0.00,Wunderground v.1.15,2013-01-06 01:10:00,
2013-01-05 20:20:00,24.3,17.2,30.24,SW,216,1.0,1.0,74,0.00,,,0.00,Wunderground v.1.15,2013-01-06 01:20:00,
2013-01-05 20:30:00,24.2,17.4,30.24,SSW,195,1.0,1.0,75,0.00,,,0.00,Wunderground v.1.15,2013-01-06 01:30:00,
2013-01-05 20:40:00,24.2,17.4,30.24,SSW,195,0.0,0.0,75,0.00,,,0.00,Wunderground v.1.15,2013-01-06 01:40:00,
2013-01-05 20:50:00,23.8,16.7,30.24,SSW,195,0.0,0.0,74,0.00,,,0.00,Wunderground v.1.15,2013-01-06 01:50:00,
2013-01-05 21:00:00,23.5,16.7,30.24,SSW,195,0.0,1.0,75,0.00,,,0.00,Wunderground v.1.15,2013-01-06 02:00:00,
2013-01-05 21:10:00,23.3,17.2,30.23,SSW,201,1.0,1.0,77,0.00,,,0.00,Wunderground v.1.15,2013-01-06 02:10:00,
2013-01-05 21:20:00,23.1,17.0,30.24,SSW,201,0.0,0.0,77,0.00,,,0.00,Wunderground v.1.15,2013-01-06 02:20:00,
2013-01-05 21:30:00,22.8,16.7,30.24,West,273,1.0,1.0,77,0.00,,,0.00,Wunderground v.1.15,2013-01-06 02:30:00,
2013-01-05 21:40:00,22.5,16.7,30.24,West,273,0.0,0.0,78,0.00,,,0.00,Wunderground v.1.15,2013-01-06 02:40:00,
2013-01-05 21:50:00,22.4,16.9,30.23,West,273,0.0,0.0,79,0.00,,,0.00,Wunderground v.1.15,2013-01-06 02:50:00,
2013-01-05 22:00:00,22.2,17.0,30.23,West,273,0.0,0.0,80,0.00,,,0.00,Wunderground v.1.15,2013-01-06 03:00:00,
2013-01-05 22:10:00,22.0,16.8,30.23,South,183,1.0,1.0,80,0.00,,,0.00,Wunderground v.1.15,2013-01-06 03:10:00,
2013-01-05 22:20:00,21.7,16.8,30.23,South,183,0.0,0.0,81,0.00,,,0.00,Wunderground v.1.15,2013-01-06 03:20:00,
2013-01-05 22:30:00,21.5,16.6,30.24,South,183,0.0,0.0,81,0.00,,,0.00,Wunderground v.1.15,2013-01-06 03:30:00,
2013-01-05 22:40:00,21.3,16.4,30.24,South,183,0.0,0.0,81,0.00,,,0.00,Wunderground v.1.15,2013-01-06 03:40:00,
2013-01-05 22:50:00,21.3,16.7,30.25,South,183,0.0,0.0,82,0.00,,,0.00,Wunderground v.1.15,2013-01-06 03:50:00,
2013-01-05 23:00:00,21.3,16.7,30.23,South,183,0.0,0.0,82,0.00,,,0.00,Wunderground v.1.15,2013-01-06 04:00:00,
2013-01-05 23:10:00,21.1,16.7,30.22,South,183,0.0,0.0,83,0.00,,,0.00,Wunderground v.1.15,2013-01-06 04:10:00,
2013-01-05 23:20:00,21.2,16.8,30.21,South,183,0.0,0.0,83,0.00,,,0.00,Wunderground v.1.15,2013-01-06 04:20:00,
2013-01-05 23:30:00,21.3,16.9,30.20,South,183,0.0,0.0,83,0.00,,,0.00,Wunderground v.1.15,2013-01-06 04:30:00,
2013-01-05 23:40:00,21.3,16.9,30.21,South,183,0.0,0.0,83,0.00,,,0.00,Wunderground v.1.15,2013-01-06 04:40:00,
2013-01-05 23:50:00,21.4,17.0,30.20,South,188,0.0,0.0,83,0.00,,,0.00,Wunderground v.1.15,2013-01-06 04:50:00,